Time;durP1;ratioP1;P1;durP2;ratioP2;P2;SDS_P1;SDS_P2;PMS_P1;PMS_P2;Temp;Humidity;BMP_temperature;BMP_pressure;BME280_temperature;BME280_humidity;BME280_pressure;Samples;Min_cycle;Max_cycle;Signal;HPM_P1;HPM_P2
2023/01/20 00:00:49;;;;;;;7.68;4.90;;;;;;;;;;6266916;28;20053;-67
2023/01/20 00:03:52;;;;;;;6.88;4.90;;;;;;;;;;6264030;28;20234;-67
2023/01/20 00:06:54;;;;;;;8.40;5.17;;;;;;;;;;6266767;28;20041;-68
2023/01/20 00:09:56;;;;;;;6.75;4.88;;;;;;;;;;6266404;28;20052;-70
2023/01/20 00:12:57;;;;;;;33.80;18.02;;;;;;;;;;6269406;28;20487;-71
2023/01/20 00:15:59;;;;;;;28.67;12.13;;;;;;;;;;6272390;28;20448;-71
2023/01/20 00:19:02;;;;;;;121.00;52.70;;;;;;;;;;6268996;28;20057;-70
2023/01/20 00:22:04;;;;;;;71.40;31.77;;;;;;;;;;6264765;28;20056;-71
2023/01/20 00:25:06;;;;;;;15.45;8.73;;;;;;;;;;6265870;28;20098;-68
2023/01/20 00:28:08;;;;;;;6.03;4.13;;;;;;;;;;6265921;28;20328;-65
2023/01/20 00:31:11;;;;;;;6.63;4.40;;;;;;;;;;6263388;28;20060;-67
2023/01/20 00:34:14;;;;;;;12.07;4.57;;;;;;;;;;6267966;28;20053;-68
2023/01/20 00:37:16;;;;;;;7.88;4.88;;;;;;;;;;6265436;28;20045;-68
2023/01/20 00:40:18;;;;;;;6.57;4.07;;;;;;;;;;6264203;28;20049;-67
2023/01/20 00:43:19;;;;;;;6.72;4.15;;;;;;;;;;6263034;28;20053;-67
2023/01/20 00:46:22;;;;;;;6.97;4.13;;;;;;;;;;6261244;28;20064;-67
2023/01/20 00:49:25;;;;;;;5.47;3.75;;;;;;;;;;6265021;28;20064;-68
2023/01/20 00:52:26;;;;;;;9.25;4.95;;;;;;;;;;6267321;28;20053;-67
2023/01/20 00:55:28;;;;;;;7.38;4.30;;;;;;;;;;6264524;28;20059;-67
2023/01/20 00:58:30;;;;;;;7.80;4.60;;;;;;;;;;6262320;28;20057;-68
2023/01/20 01:01:31;;;;;;;6.95;4.43;;;;;;;;;;6269689;28;20083;-68
2023/01/20 01:04:34;;;;;;;7.03;4.78;;;;;;;;;;6264107;28;20394;-71
2023/01/20 01:07:36;;;;;;;9.23;5.70;;;;;;;;;;6263465;28;20072;-67
2023/01/20 01:10:38;;;;;;;7.60;5.35;;;;;;;;;;6267321;28;20099;-67
2023/01/20 01:13:40;;;;;;;10.88;5.53;;;;;;;;;;6264113;28;20045;-68
2023/01/20 01:16:41;;;;;;;9.40;5.00;;;;;;;;;;6267903;28;20044;-69
2023/01/20 01:19:44;;;;;;;8.82;5.63;;;;;;;;;;6264942;28;20107;-68
2023/01/20 01:22:46;;;;;;;8.57;6.13;;;;;;;;;;6265377;28;20076;-69
2023/01/20 01:25:48;;;;;;;8.60;6.05;;;;;;;;;;6263998;28;20053;-68
2023/01/20 01:28:50;;;;;;;9.18;6.28;;;;;;;;;;6263402;28;20119;-67
2023/01/20 01:31:51;;;;;;;10.00;6.82;;;;;;;;;;6265254;28;20098;-68
2023/01/20 01:34:54;;;;;;;10.75;7.00;;;;;;;;;;6265634;28;20274;-68
2023/01/20 01:37:56;;;;;;;10.27;7.35;;;;;;;;;;6266045;28;20064;-68
2023/01/20 01:40:58;;;;;;;13.75;8.07;;;;;;;;;;6265114;28;20045;-68
2023/01/20 01:44:05;;;;;;;10.75;7.65;;;;;;;;;;6261606;28;20395;-70
2023/01/20 01:47:07;;;;;;;12.63;8.60;;;;;;;;;;6265002;28;20327;-67
2023/01/20 01:50:13;;;;;;;12.63;9.30;;;;;;;;;;6263335;28;20065;-69
2023/01/20 01:53:15;;;;;;;13.85;9.77;;;;;;;;;;6267593;28;20064;-68
2023/01/20 01:56:17;;;;;;;15.95;10.55;;;;;;;;;;6265386;28;20061;-69
2023/01/20 01:59:20;;;;;;;17.23;10.80;;;;;;;;;;6267022;28;20317;-68
2023/01/20 02:02:21;;;;;;;16.67;10.30;;;;;;;;;;6261501;28;20053;-68
2023/01/20 02:05:25;;;;;;;13.88;10.23;;;;;;;;;;6263614;28;20111;-68
2023/01/20 02:08:27;;;;;;;14.50;10.47;;;;;;;;;;6266935;28;20056;-68
2023/01/20 02:11:29;;;;;;;15.30;10.05;;;;;;;;;;6264543;28;20053;-68
2023/01/20 02:14:33;;;;;;;15.10;9.98;;;;;;;;;;6262995;28;20067;-68
2023/01/20 02:17:38;;;;;;;13.93;9.50;;;;;;;;;;6269017;28;20045;-67
2023/01/20 02:20:53;;;;;;;15.18;9.55;;;;;;;;;;6259818;28;20341;-68
2023/01/20 02:24:33;;;;;;;14.52;9.95;;;;;;;;;;6261807;28;20052;-68
2023/01/20 02:27:49;;;;;;;13.85;9.40;;;;;;;;;;6264433;28;20257;-68
2023/01/20 02:31:01;;;;;;;15.30;10.20;;;;;;;;;;6262273;28;20063;-68
2023/01/20 02:34:08;;;;;;;14.10;9.40;;;;;;;;;;6264034;28;20065;-68
2023/01/20 02:37:13;;;;;;;14.32;9.73;;;;;;;;;;6264859;28;20053;-68
2023/01/20 02:40:25;;;;;;;15.40;10.27;;;;;;;;;;6262172;28;20284;-67
2023/01/20 02:43:31;;;;;;;13.65;9.75;;;;;;;;;;6259395;28;20061;-68
2023/01/20 02:46:36;;;;;;;15.27;9.32;;;;;;;;;;6260886;28;20052;-67
2023/01/20 02:49:41;;;;;;;16.15;10.02;;;;;;;;;;6260034;28;20059;-68
2023/01/20 02:52:45;;;;;;;13.55;9.68;;;;;;;;;;6258300;28;20110;-68
2023/01/20 02:55:48;;;;;;;15.50;9.70;;;;;;;;;;6262159;28;20156;-68
2023/01/20 02:58:51;;;;;;;14.40;9.25;;;;;;;;;;6262072;28;20057;-68
2023/01/20 03:01:54;;;;;;;13.70;9.48;;;;;;;;;;6261512;28;21111;-68
2023/01/20 03:05:01;;;;;;;13.98;9.63;;;;;;;;;;6260794;28;20060;-68
2023/01/20 03:08:05;;;;;;;13.95;8.88;;;;;;;;;;6262802;28;20194;-68
2023/01/20 03:11:08;;;;;;;12.80;8.75;;;;;;;;;;6261691;28;20060;-67
2023/01/20 03:14:11;;;;;;;12.15;8.23;;;;;;;;;;6263385;28;21007;-68
2023/01/20 03:17:13;;;;;;;15.57;8.35;;;;;;;;;;6261726;28;20048;-68
2023/01/20 03:20:17;;;;;;;12.35;8.38;;;;;;;;;;6256627;28;20316;-68
2023/01/20 03:23:18;;;;;;;12.93;8.25;;;;;;;;;;6261107;28;20293;-69
2023/01/20 03:26:22;;;;;;;12.68;8.25;;;;;;;;;;6257921;28;20057;-68
2023/01/20 03:29:24;;;;;;;11.30;8.45;;;;;;;;;;6256464;28;20117;-68
2023/01/20 03:32:27;;;;;;;11.43;7.88;;;;;;;;;;6258919;28;20309;-68
2023/01/20 03:35:31;;;;;;;14.15;8.95;;;;;;;;;;6263966;28;20334;-68
2023/01/20 03:38:33;;;;;;;10.98;8.32;;;;;;;;;;6266486;28;20067;-68
2023/01/20 03:41:40;;;;;;;12.07;8.55;;;;;;;;;;6264267;28;20252;-68
2023/01/20 03:44:56;;;;;;;13.20;8.60;;;;;;;;;;6263921;28;20849;-69
2023/01/20 03:48:00;;;;;;;14.82;9.18;;;;;;;;;;6266710;28;20091;-67
2023/01/20 03:51:09;;;;;;;11.83;8.93;;;;;;;;;;6268944;28;20063;-68
2023/01/20 03:54:12;;;;;;;13.23;9.18;;;;;;;;;;6267244;28;20648;-67
2023/01/20 03:57:17;;;;;;;14.50;9.07;;;;;;;;;;6270945;28;20329;-68
2023/01/20 04:00:20;;;;;;;15.30;9.68;;;;;;;;;;6267404;28;20061;-68
2023/01/20 04:03:25;;;;;;;12.15;8.40;;;;;;;;;;6267010;28;20091;-69
2023/01/20 04:06:29;;;;;;;13.65;9.23;;;;;;;;;;6266903;28;20260;-68
2023/01/20 04:09:34;;;;;;;13.77;8.32;;;;;;;;;;6262077;28;20053;-69
2023/01/20 04:12:35;;;;;;;13.60;8.52;;;;;;;;;;6266780;28;20041;-68
2023/01/20 04:15:40;;;;;;;12.82;8.98;;;;;;;;;;6264872;28;20045;-68
2023/01/20 04:18:42;;;;;;;15.38;9.27;;;;;;;;;;6261458;28;20060;-68
2023/01/20 04:21:49;;;;;;;14.02;9.55;;;;;;;;;;6263277;28;20304;-69
2023/01/20 04:24:53;;;;;;;16.05;8.65;;;;;;;;;;6266935;28;20063;-68
2023/01/20 04:27:56;;;;;;;12.90;8.73;;;;;;;;;;6265599;28;20052;-68
2023/01/20 04:30:58;;;;;;;16.90;8.15;;;;;;;;;;6264443;28;20048;-69
2023/01/20 04:34:00;;;;;;;13.90;8.80;;;;;;;;;;6265321;28;20053;-68
2023/01/20 04:37:03;;;;;;;13.10;9.07;;;;;;;;;;6267767;28;20045;-68
2023/01/20 04:40:05;;;;;;;11.32;7.97;;;;;;;;;;6265856;28;20066;-68
2023/01/20 04:43:08;;;;;;;12.50;8.07;;;;;;;;;;6264650;28;20053;-69
2023/01/20 04:46:11;;;;;;;12.15;7.65;;;;;;;;;;6266874;28;20057;-67
2023/01/20 04:49:12;;;;;;;15.13;8.50;;;;;;;;;;6264862;28;20052;-68
2023/01/20 04:52:16;;;;;;;14.65;9.07;;;;;;;;;;6265190;28;20344;-68
2023/01/20 04:55:18;;;;;;;15.70;10.75;;;;;;;;;;6267922;28;20053;-68
2023/01/20 04:58:19;;;;;;;17.35;9.70;;;;;;;;;;6266569;28;20345;-67
2023/01/20 05:01:21;;;;;;;16.45;10.30;;;;;;;;;;6268199;28;20053;-68
2023/01/20 05:04:23;;;;;;;18.55;10.18;;;;;;;;;;6266428;28;20053;-68
2023/01/20 05:07:26;;;;;;;16.55;10.15;;;;;;;;;;6266806;28;20053;-68
2023/01/20 05:10:27;;;;;;;14.75;10.20;;;;;;;;;;6265503;28;20049;-68
2023/01/20 05:13:29;;;;;;;18.38;10.98;;;;;;;;;;6266002;28;20056;-69
2023/01/20 05:16:32;;;;;;;17.92;12.02;;;;;;;;;;6269392;28;20057;-70
2023/01/20 05:19:34;;;;;;;21.17;11.88;;;;;;;;;;6265996;28;20049;-69
2023/01/20 05:22:37;;;;;;;18.90;11.50;;;;;;;;;;6267870;28;20048;-70
2023/01/20 05:25:39;;;;;;;19.23;11.48;;;;;;;;;;6268134;28;20450;-69
2023/01/20 05:28:42;;;;;;;19.30;12.27;;;;;;;;;;6269174;28;20052;-71
2023/01/20 05:31:44;;;;;;;20.33;11.15;;;;;;;;;;6267193;28;20147;-73
2023/01/20 05:34:45;;;;;;;19.15;12.02;;;;;;;;;;6266792;28;20055;-70
2023/01/20 05:37:49;;;;;;;19.85;11.95;;;;;;;;;;6268252;28;20064;-71
2023/01/20 05:40:50;;;;;;;19.17;11.57;;;;;;;;;;6264420;28;20070;-72
2023/01/20 05:43:53;;;;;;;20.80;11.75;;;;;;;;;;6267579;28;20045;-70
2023/01/20 05:46:54;;;;;;;21.50;11.65;;;;;;;;;;6266196;28;20037;-69
2023/01/20 05:49:56;;;;;;;17.90;12.07;;;;;;;;;;6268244;28;20065;-71
2023/01/20 05:52:59;;;;;;;20.73;12.30;;;;;;;;;;6266982;28;20347;-69
2023/01/20 05:56:01;;;;;;;18.20;11.98;;;;;;;;;;6263262;28;20053;-70
2023/01/20 05:59:05;;;;;;;21.17;11.70;;;;;;;;;;6264051;28;20333;-70
2023/01/20 06:02:06;;;;;;;19.50;11.55;;;;;;;;;;6265406;28;20344;-71
2023/01/20 06:05:08;;;;;;;23.00;11.70;;;;;;;;;;6265209;28;20057;-71
2023/01/20 06:08:11;;;;;;;20.50;12.00;;;;;;;;;;6262794;28;20063;-70
2023/01/20 06:11:14;;;;;;;21.05;13.35;;;;;;;;;;6264394;28;20068;-71
2023/01/20 06:14:15;;;;;;;21.02;12.40;;;;;;;;;;6265253;28;20244;-70
2023/01/20 06:17:17;;;;;;;19.45;11.90;;;;;;;;;;6264964;28;20057;-71
2023/01/20 06:20:19;;;;;;;19.70;13.10;;;;;;;;;;6264929;28;20236;-69
2023/01/20 06:23:22;;;;;;;20.98;13.15;;;;;;;;;;6265041;28;20045;-70
2023/01/20 06:26:24;;;;;;;20.80;12.52;;;;;;;;;;6261985;28;20049;-71
2023/01/20 06:29:26;;;;;;;19.80;11.57;;;;;;;;;;6266119;28;20065;-71
2023/01/20 06:32:27;;;;;;;18.02;11.77;;;;;;;;;;6262802;28;20076;-70
2023/01/20 06:35:29;;;;;;;22.65;13.63;;;;;;;;;;6262831;28;20045;-71
2023/01/20 06:38:33;;;;;;;15.43;10.60;;;;;;;;;;6263441;28;20128;-70
2023/01/20 06:41:35;;;;;;;22.48;12.75;;;;;;;;;;6262906;28;20182;-72
2023/01/20 06:44:37;;;;;;;24.13;12.65;;;;;;;;;;6262117;28;20049;-70
2023/01/20 06:47:39;;;;;;;20.17;10.88;;;;;;;;;;6260309;28;20065;-71
2023/01/20 06:50:40;;;;;;;19.02;11.50;;;;;;;;;;6261418;28;20057;-71
2023/01/20 06:53:44;;;;;;;21.58;12.23;;;;;;;;;;6263911;28;20053;-71
2023/01/20 06:56:45;;;;;;;19.45;11.80;;;;;;;;;;6262154;28;20140;-71
2023/01/20 06:59:47;;;;;;;18.52;12.25;;;;;;;;;;6260357;28;20057;-71
2023/01/20 07:02:49;;;;;;;19.45;12.10;;;;;;;;;;6263775;28;20303;-70
2023/01/20 07:05:56;;;;;;;19.40;12.90;;;;;;;;;;6261746;28;20072;-72
2023/01/20 07:09:00;;;;;;;25.05;13.07;;;;;;;;;;6263232;28;20065;-70
2023/01/20 07:12:02;;;;;;;19.95;12.02;;;;;;;;;;6261061;28;20064;-70
2023/01/20 07:15:04;;;;;;;19.52;11.93;;;;;;;;;;6263683;28;20061;-71
2023/01/20 07:18:06;;;;;;;21.80;14.00;;;;;;;;;;6261847;28;20340;-71
2023/01/20 07:21:10;;;;;;;22.77;14.32;;;;;;;;;;6261972;28;20076;-71
2023/01/20 07:24:13;;;;;;;24.90;14.57;;;;;;;;;;6263029;28;20068;-71
2023/01/20 07:27:15;;;;;;;23.40;14.50;;;;;;;;;;6263705;28;20095;-71
2023/01/20 07:30:17;;;;;;;23.77;14.70;;;;;;;;;;6262404;28;20057;-72
2023/01/20 07:33:19;;;;;;;21.55;13.77;;;;;;;;;;6263460;28;20124;-71
2023/01/20 07:36:21;;;;;;;21.98;13.90;;;;;;;;;;6261250;28;20056;-70
2023/01/20 07:39:24;;;;;;;25.98;15.23;;;;;;;;;;6265339;28;20057;-69
2023/01/20 07:42:25;;;;;;;24.52;14.85;;;;;;;;;;6261786;28;20037;-71
2023/01/20 07:45:27;;;;;;;27.67;14.80;;;;;;;;;;6261209;28;20143;-71
2023/01/20 07:48:30;;;;;;;22.30;14.45;;;;;;;;;;6260417;28;20041;-71
2023/01/20 07:51:32;;;;;;;27.15;14.68;;;;;;;;;;6261877;28;20111;-71
2023/01/20 07:54:35;;;;;;;21.20;13.35;;;;;;;;;;6261506;28;20050;-71
2023/01/20 07:57:36;;;;;;;20.77;13.27;;;;;;;;;;6264394;28;20049;-71
2023/01/20 08:00:38;;;;;;;20.05;12.82;;;;;;;;;;6262430;28;20376;-71
2023/01/20 08:03:40;;;;;;;21.67;13.00;;;;;;;;;;6261982;28;20087;-71
2023/01/20 08:06:41;;;;;;;19.23;13.43;;;;;;;;;;6263345;28;20060;-71
2023/01/20 08:09:44;;;;;;;19.20;12.68;;;;;;;;;;6262996;28;20353;-71
2023/01/20 08:12:46;;;;;;;20.58;12.98;;;;;;;;;;6263779;28;20148;-71
2023/01/20 08:15:48;;;;;;;21.10;13.32;;;;;;;;;;6261829;28;20099;-71
2023/01/20 08:18:49;;;;;;;23.80;13.23;;;;;;;;;;6265068;28;20060;-71
2023/01/20 08:21:51;;;;;;;20.90;13.68;;;;;;;;;;6262502;28;20090;-71
2023/01/20 08:24:54;;;;;;;19.92;13.32;;;;;;;;;;6264819;28;20122;-71
2023/01/20 08:27:56;;;;;;;19.13;12.77;;;;;;;;;;6265462;28;20056;-72
2023/01/20 08:31:05;;;;;;;21.55;13.15;;;;;;;;;;6268634;28;20333;-71
2023/01/20 08:34:06;;;;;;;22.38;14.43;;;;;;;;;;6265874;28;20201;-71
2023/01/20 08:37:08;;;;;;;21.25;13.98;;;;;;;;;;6267060;28;20057;-71
2023/01/20 08:40:12;;;;;;;22.80;14.98;;;;;;;;;;6265492;28;20384;-71
2023/01/20 08:43:14;;;;;;;24.35;15.57;;;;;;;;;;6267616;28;20064;-71
2023/01/20 08:46:18;;;;;;;23.05;15.15;;;;;;;;;;6268112;28;20061;-71
2023/01/20 08:49:20;;;;;;;22.45;14.82;;;;;;;;;;6266799;28;20053;-71
2023/01/20 08:52:22;;;;;;;25.15;15.75;;;;;;;;;;6266045;28;20132;-72
2023/01/20 08:55:25;;;;;;;31.40;16.83;;;;;;;;;;6261754;28;20045;-70
2023/01/20 08:58:27;;;;;;;31.88;17.15;;;;;;;;;;6263810;28;20061;-71
2023/01/20 09:01:32;;;;;;;30.70;16.88;;;;;;;;;;6266931;28;20218;-70
2023/01/20 09:04:36;;;;;;;26.58;16.75;;;;;;;;;;6267013;28;20123;-72
2023/01/20 09:07:37;;;;;;;32.47;17.27;;;;;;;;;;6263606;28;20107;-70
2023/01/20 09:10:40;;;;;;;30.45;16.90;;;;;;;;;;6267202;28;20053;-72
2023/01/20 09:13:42;;;;;;;24.90;15.55;;;;;;;;;;6266921;28;20107;-71
2023/01/20 09:16:44;;;;;;;27.80;15.93;;;;;;;;;;6264894;28;20049;-70
2023/01/20 09:19:46;;;;;;;26.02;15.15;;;;;;;;;;6265301;28;20045;-72
2023/01/20 09:22:47;;;;;;;23.17;15.38;;;;;;;;;;6262315;28;20134;-71
2023/01/20 09:25:51;;;;;;;25.67;16.00;;;;;;;;;;6261513;28;20052;-71
2023/01/20 09:28:52;;;;;;;27.35;16.05;;;;;;;;;;6265284;28;20053;-71
2023/01/20 09:31:56;;;;;;;30.70;15.90;;;;;;;;;;6263861;28;20122;-70
2023/01/20 09:34:58;;;;;;;29.98;16.83;;;;;;;;;;6263167;28;20053;-72
2023/01/20 09:44:49;;;;;;;31.85;17.15;;;;;;;;;;6255756;28;20447;-71
2023/01/20 09:47:51;;;;;;;29.42;17.60;;;;;;;;;;6262754;28;20049;-71
2023/01/20 09:54:20;;;;;;;31.15;17.77;;;;;;;;;;6267697;28;20049;-71
2023/01/20 09:57:25;;;;;;;32.72;18.25;;;;;;;;;;6265604;28;20154;-71
2023/01/20 10:00:30;;;;;;;31.40;18.15;;;;;;;;;;6262664;28;20071;-70
2023/01/20 10:03:36;;;;;;;28.10;17.77;;;;;;;;;;6266817;28;20072;-72
2023/01/20 10:06:41;;;;;;;27.63;17.80;;;;;;;;;;6263373;28;20656;-71
2023/01/20 10:09:48;;;;;;;30.80;17.80;;;;;;;;;;6262736;28;20057;-71
2023/01/20 10:12:54;;;;;;;26.83;16.83;;;;;;;;;;6264280;28;20103;-72
2023/01/20 10:15:57;;;;;;;27.90;16.75;;;;;;;;;;6264744;28;20056;-71
2023/01/20 10:19:01;;;;;;;28.20;18.02;;;;;;;;;;6263463;28;20260;-71
2023/01/20 10:22:08;;;;;;;29.80;16.50;;;;;;;;;;6264225;28;20057;-70
2023/01/20 10:25:15;;;;;;;27.67;16.55;;;;;;;;;;6264414;28;20045;-72
2023/01/20 10:28:22;;;;;;;26.80;16.85;;;;;;;;;;6265107;28;20044;-71
2023/01/20 10:31:27;;;;;;;27.48;17.30;;;;;;;;;;6263881;28;20045;-72
2023/01/20 10:34:33;;;;;;;27.13;17.08;;;;;;;;;;6262951;28;20073;-72
2023/01/20 10:37:35;;;;;;;29.50;17.70;;;;;;;;;;6261410;28;20151;-70
2023/01/20 10:40:41;;;;;;;27.00;16.60;;;;;;;;;;6261176;28;20124;-71
2023/01/20 10:43:44;;;;;;;29.20;17.52;;;;;;;;;;6262303;28;20122;-70
2023/01/20 10:46:57;;;;;;;29.27;16.48;;;;;;;;;;6259060;28;20053;-70
2023/01/20 10:50:38;;;;;;;28.10;17.65;;;;;;;;;;6264750;28;21366;-71
2023/01/20 10:53:47;;;;;;;30.05;18.17;;;;;;;;;;6211611;28;20345;-70
2023/01/20 10:56:52;;;;;;;33.30;19.67;;;;;;;;;;6211671;28;20054;-70
2023/01/20 10:59:59;;;;;;;34.75;19.80;;;;;;;;;;6208351;28;20053;-69
2023/01/20 11:03:02;;;;;;;35.20;20.73;;;;;;;;;;6212900;28;20061;-70
2023/01/20 11:06:04;;;;;;;35.17;21.20;;;;;;;;;;6212809;28;20508;-71
2023/01/20 11:09:19;;;;;;;38.35;22.83;;;;;;;;;;6208305;28;20068;-70
2023/01/20 11:12:23;;;;;;;39.45;22.23;;;;;;;;;;6211348;28;20241;-70
2023/01/20 11:15:29;;;;;;;36.70;22.90;;;;;;;;;;6210000;28;20112;-70
2023/01/20 11:18:32;;;;;;;36.88;22.73;;;;;;;;;;6210514;28;20081;-69
2023/01/20 11:21:35;;;;;;;36.80;21.40;;;;;;;;;;6210041;28;20061;-70
2023/01/20 11:24:42;;;;;;;36.40;22.63;;;;;;;;;;6210263;28;20039;-70
2023/01/20 11:27:44;;;;;;;36.22;21.63;;;;;;;;;;6214100;28;20454;-70
2023/01/20 11:30:51;;;;;;;32.95;20.88;;;;;;;;;;6263163;28;20341;-70
2023/01/20 11:33:58;;;;;;;31.65;20.63;;;;;;;;;;6261672;28;20098;-71
2023/01/20 11:37:20;;;;;;;28.60;19.95;;;;;;;;;;6264670;28;20272;-69
2023/01/20 11:40:23;;;;;;;33.47;21.05;;;;;;;;;;6260489;28;20041;-70
2023/01/20 11:43:34;;;;;;;25.17;18.10;;;;;;;;;;6261674;28;20049;-71
2023/01/20 11:46:37;;;;;;;28.92;19.83;;;;;;;;;;6258738;28;20057;-71
2023/01/20 11:49:39;;;;;;;30.15;20.50;;;;;;;;;;6262092;28;20238;-69
2023/01/20 11:52:42;;;;;;;25.60;19.17;;;;;;;;;;6266104;28;20060;-71
2023/01/20 11:55:48;;;;;;;28.40;19.83;;;;;;;;;;6258073;28;20312;-70
2023/01/20 11:58:54;;;;;;;28.00;19.45;;;;;;;;;;6267857;28;20067;-71
2023/01/20 12:02:00;;;;;;;26.88;18.08;;;;;;;;;;6267663;28;20112;-69
2023/01/20 12:05:11;;;;;;;23.25;16.35;;;;;;;;;;6270082;28;20222;-71
2023/01/20 12:08:18;;;;;;;21.60;15.05;;;;;;;;;;6267380;28;20205;-71
2023/01/20 12:11:23;;;;;;;22.77;14.95;;;;;;;;;;6266114;28;20052;-72
2023/01/20 12:14:29;;;;;;;20.08;13.80;;;;;;;;;;6268978;28;20041;-72
2023/01/20 12:17:44;;;;;;;18.17;13.23;;;;;;;;;;6267872;28;20045;-71
2023/01/20 12:20:46;;;;;;;;;;;;;;;;;;6267050;28;20272;-72
2023/01/20 12:23:49;;;;;;;20.92;12.50;;;;;;;;;;6266868;28;20267;-72
2023/01/20 12:26:51;;;;;;;19.48;12.98;;;;;;;;;;6265993;28;20064;-72
2023/01/20 12:29:55;;;;;;;16.90;11.77;;;;;;;;;;6272035;28;20037;-75
2023/01/20 12:32:59;;;;;;;15.25;11.48;;;;;;;;;;6270919;28;20084;-73
2023/01/20 12:36:29;;;;;;;17.17;12.02;;;;;;;;;;6271951;28;20434;-74
2023/01/20 12:39:53;;;;;;;21.95;12.25;;;;;;;;;;6265448;28;20220;-74
2023/01/20 12:43:17;;;;;;;15.65;11.40;;;;;;;;;;6272002;28;20329;-73
2023/01/20 12:46:35;;;;;;;;;;;;;;;;;;6269611;28;20037;-71
2023/01/20 12:49:49;;;;;;;14.93;10.63;;;;;;;;;;6270916;28;19921;-71
2023/01/20 12:53:05;;;;;;;18.70;12.68;;;;;;;;;;6270632;28;20060;-73
2023/01/20 12:56:13;;;;;;;12.73;9.10;;;;;;;;;;6269873;28;20048;-71
2023/01/20 12:59:21;;;;;;;17.35;12.00;;;;;;;;;;6268916;28;20115;-72
2023/01/20 13:02:38;;;;;;;17.15;11.38;;;;;;;;;;6270034;28;20099;-72
2023/01/20 13:05:54;;;;;;;14.57;10.25;;;;;;;;;;6268845;28;20368;-71
2023/01/20 13:09:02;;;;;;;17.67;12.23;;;;;;;;;;6265667;28;20307;-72
2023/01/20 13:12:14;;;;;;;16.02;11.93;;;;;;;;;;6269460;28;20076;-72
2023/01/20 13:15:24;;;;;;;15.60;10.75;;;;;;;;;;6269092;28;20057;-69
2023/01/20 13:18:31;;;;;;;15.50;10.35;;;;;;;;;;6268170;28;20067;-71
2023/01/20 13:21:34;;;;;;;14.80;10.57;;;;;;;;;;6269552;28;20053;-74
2023/01/20 13:24:36;;;;;;;14.82;10.68;;;;;;;;;;6269913;28;20134;-73
2023/01/20 13:27:38;;;;;;;17.25;10.98;;;;;;;;;;6271167;28;20045;-69
2023/01/20 13:30:42;;;;;;;16.70;11.40;;;;;;;;;;6268220;28;20120;-69
2023/01/20 13:33:44;;;;;;;;;;;;;;;;;;6272442;28;20053;-72
2023/01/20 13:37:28;;;;;;;17.73;10.90;;;;;;;;;;6268206;28;19924;-71
2023/01/20 13:40:54;;;;;;;15.60;11.23;;;;;;;;;;6267948;28;20048;-71
2023/01/20 13:43:56;;;;;;;15.77;11.43;;;;;;;;;;6262200;28;20087;-71
2023/01/20 13:46:58;;;;;;;18.90;13.10;;;;;;;;;;6261754;28;20049;-71
2023/01/20 13:50:23;;;;;;;17.05;12.63;;;;;;;;;;6265328;28;20057;-71
2023/01/20 13:53:28;;;;;;;19.20;13.30;;;;;;;;;;6260776;28;20249;-69
2023/01/20 13:56:31;;;;;;;17.50;13.45;;;;;;;;;;6267546;28;20245;-72
2023/01/20 13:59:33;;;;;;;16.95;13.18;;;;;;;;;;6268471;28;20083;-72
2023/01/20 14:02:36;;;;;;;20.95;13.38;;;;;;;;;;6267490;28;20067;-71
2023/01/20 14:05:38;;;;;;;17.83;12.73;;;;;;;;;;6267794;28;20443;-70
2023/01/20 14:08:43;;;;;;;21.83;13.43;;;;;;;;;;6267780;28;20057;-69
2023/01/20 14:11:49;;;;;;;20.08;14.60;;;;;;;;;;6266277;28;20049;-68
2023/01/20 14:14:51;;;;;;;21.17;14.10;;;;;;;;;;6244779;28;20102;-69
2023/01/20 14:17:53;;;;;;;16.67;12.65;;;;;;;;;;6266154;28;20047;-70
2023/01/20 14:21:00;;;;;;;19.10;13.13;;;;;;;;;;6266212;28;20052;-70
2023/01/20 14:24:03;;;;;;;22.65;13.77;;;;;;;;;;6268742;28;20081;-67
2023/01/20 14:27:06;;;;;;;17.67;12.87;;;;;;;;;;6264170;28;20252;-71
2023/01/20 14:30:18;;;;;;;20.92;12.77;;;;;;;;;;6266701;28;20463;-70
2023/01/20 14:33:20;;;;;;;18.45;12.57;;;;;;;;;;6267959;28;20063;-69
2023/01/20 14:36:23;;;;;;;22.52;14.73;;;;;;;;;;6267417;28;20045;-70
2023/01/20 14:39:28;;;;;;;16.63;13.05;;;;;;;;;;6262684;28;20064;-69
2023/01/20 14:42:30;;;;;;;18.20;12.73;;;;;;;;;;6266551;28;20114;-69
2023/01/20 14:45:32;;;;;;;20.35;11.73;;;;;;;;;;6263005;28;20045;-70
2023/01/20 14:48:34;;;;;;;18.25;11.98;;;;;;;;;;6261579;28;20049;-70
2023/01/20 14:51:36;;;;;;;15.82;12.20;;;;;;;;;;6265040;28;20360;-69
2023/01/20 14:54:42;;;;;;;18.73;12.82;;;;;;;;;;6260934;28;20057;-69
2023/01/20 14:57:44;;;;;;;18.13;11.25;;;;;;;;;;6261963;28;21412;-69
2023/01/20 15:00:47;;;;;;;15.18;10.88;;;;;;;;;;6262979;28;20079;-70
2023/01/20 15:03:55;;;;;;;15.98;11.30;;;;;;;;;;6264192;28;20045;-71
2023/01/20 15:06:58;;;;;;;18.13;10.68;;;;;;;;;;6262332;28;20060;-70
2023/01/20 15:10:05;;;;;;;14.30;10.52;;;;;;;;;;6262061;28;20068;-70
2023/01/20 15:13:22;;;;;;;14.77;10.73;;;;;;;;;;6264008;28;20056;-71
2023/01/20 15:16:25;;;;;;;15.38;10.10;;;;;;;;;;6262507;28;20056;-71
2023/01/20 15:19:32;;;;;;;14.80;10.02;;;;;;;;;;6260683;28;20095;-71
2023/01/20 15:22:33;;;;;;;14.45;9.75;;;;;;;;;;6261853;28;20225;-71
2023/01/20 15:25:37;;;;;;;13.90;9.45;;;;;;;;;;6261745;28;20045;-71
2023/01/20 15:28:42;;;;;;;16.13;10.27;;;;;;;;;;6262964;28;20053;-70
2023/01/20 15:31:44;;;;;;;15.65;9.98;;;;;;;;;;6261975;28;20049;-71
2023/01/20 15:34:47;;;;;;;18.55;10.00;;;;;;;;;;6268530;28;20046;-71
2023/01/20 15:37:49;;;;;;;14.55;9.98;;;;;;;;;;6268369;28;20045;-71
2023/01/20 15:40:52;;;;;;;13.20;8.88;;;;;;;;;;6267822;28;20057;-70
2023/01/20 15:43:54;;;;;;;13.55;8.77;;;;;;;;;;6267048;28;20045;-68
2023/01/20 15:46:56;;;;;;;12.43;8.85;;;;;;;;;;6267118;28;20042;-70
2023/01/20 15:49:58;;;;;;;13.43;8.48;;;;;;;;;;6267070;28;20264;-70
2023/01/20 15:52:59;;;;;;;12.40;8.65;;;;;;;;;;6261089;28;20420;-69
2023/01/20 15:56:02;;;;;;;12.02;8.27;;;;;;;;;;6266788;28;20057;-70
2023/01/20 15:59:10;;;;;;;17.17;8.32;;;;;;;;;;6267888;28;20057;-69
2023/01/20 16:02:19;;;;;;;14.00;8.95;;;;;;;;;;6267837;28;20344;-69
2023/01/20 16:05:21;;;;;;;15.82;9.15;;;;;;;;;;6268571;28;20057;-69
2023/01/20 16:08:24;;;;;;;13.70;9.18;;;;;;;;;;6267165;28;20120;-70
2023/01/20 16:11:27;;;;;;;14.07;8.75;;;;;;;;;;6266800;28;20064;-70
2023/01/20 16:14:28;;;;;;;12.40;8.38;;;;;;;;;;6266966;28;20340;-67
2023/01/20 16:17:31;;;;;;;15.60;8.77;;;;;;;;;;6258706;28;20049;-69
2023/01/20 16:20:34;;;;;;;18.45;9.60;;;;;;;;;;6263777;28;20101;-71
2023/01/20 16:23:36;;;;;;;12.32;8.73;;;;;;;;;;6262539;28;20099;-70
2023/01/20 16:26:39;;;;;;;16.70;8.88;;;;;;;;;;6267167;28;20053;-68
2023/01/20 16:29:40;;;;;;;14.68;8.85;;;;;;;;;;6264018;28;20367;-71
2023/01/20 16:32:44;;;;;;;13.32;9.23;;;;;;;;;;6262640;28;20067;-71
2023/01/20 16:35:46;;;;;;;18.00;8.95;;;;;;;;;;6263137;28;20182;-70
2023/01/20 16:38:50;;;;;;;18.42;9.40;;;;;;;;;;6264740;28;20333;-70
2023/01/20 16:41:53;;;;;;;18.95;8.93;;;;;;;;;;6265556;28;20884;-68
2023/01/20 16:44:55;;;;;;;11.80;8.10;;;;;;;;;;6262484;28;20119;-69
2023/01/20 16:47:57;;;;;;;15.38;7.85;;;;;;;;;;6260082;28;20625;-68
2023/01/20 16:51:05;;;;;;;13.23;8.60;;;;;;;;;;6263762;28;20356;-68
2023/01/20 16:54:07;;;;;;;20.45;8.32;;;;;;;;;;6263985;28;20396;-70
2023/01/20 16:57:10;;;;;;;14.18;8.93;;;;;;;;;;6263924;28;20056;-70
2023/01/20 17:00:12;;;;;;;14.37;8.17;;;;;;;;;;6265636;28;20061;-70
2023/01/20 17:03:14;;;;;;;12.02;7.85;;;;;;;;;;6267289;28;20887;-71
2023/01/20 17:06:18;;;;;;;13.20;7.78;;;;;;;;;;6265451;28;20049;-69
2023/01/20 17:09:20;;;;;;;12.95;8.50;;;;;;;;;;6264379;28;20053;-70
2023/01/20 17:12:23;;;;;;;12.23;8.20;;;;;;;;;;6269183;28;20054;-71
2023/01/20 17:15:25;;;;;;;12.45;7.95;;;;;;;;;;6263601;28;20096;-71
2023/01/20 17:18:27;;;;;;;14.35;9.07;;;;;;;;;;6268193;28;20103;-70
2023/01/20 17:21:31;;;;;;;15.75;8.38;;;;;;;;;;6268508;28;20372;-70
2023/01/20 17:24:33;;;;;;;18.15;8.45;;;;;;;;;;6263738;28;20060;-70
2023/01/20 17:27:37;;;;;;;16.67;9.25;;;;;;;;;;6260257;28;20041;-70
2023/01/20 17:30:38;;;;;;;16.40;8.68;;;;;;;;;;6267020;28;20048;-70
2023/01/20 17:33:45;;;;;;;13.27;7.75;;;;;;;;;;6262707;28;20055;-70
2023/01/20 17:36:48;;;;;;;14.85;7.82;;;;;;;;;;6265761;28;20352;-68
2023/01/20 17:39:49;;;;;;;14.40;8.55;;;;;;;;;;6264375;28;20054;-68
2023/01/20 17:42:53;;;;;;;12.77;7.88;;;;;;;;;;6263423;28;20299;-70
2023/01/20 17:45:55;;;;;;;15.07;7.30;;;;;;;;;;6265773;28;20037;-69
2023/01/20 17:48:58;;;;;;;17.65;7.65;;;;;;;;;;6261996;28;20056;-70
2023/01/20 17:51:59;;;;;;;11.75;6.85;;;;;;;;;;6263149;28;20419;-70
2023/01/20 17:55:01;;;;;;;14.05;7.55;;;;;;;;;;6263072;28;20398;-67
2023/01/20 17:58:04;;;;;;;12.20;7.85;;;;;;;;;;6265305;28;20053;-70
2023/01/20 18:01:14;;;;;;;16.45;7.93;;;;;;;;;;6263644;28;20057;-70
2023/01/20 18:04:16;;;;;;;13.35;8.43;;;;;;;;;;6262753;28;20100;-70
2023/01/20 18:07:18;;;;;;;19.27;9.00;;;;;;;;;;6264368;28;20328;-70
2023/01/20 18:10:22;;;;;;;17.70;9.68;;;;;;;;;;6265003;28;20337;-71